| time (UTC) | temp F | wind direction | speed knots | gust knots | rain 1hr in | rain 24hr in | rain mn in | humidity % | barometer mb |
| 20260510203930 | 78 | 98 | 2.6 | 4.3 | 0.00 | 0.00 | 0.00 | 46 | 987.8 |
| 20260510203333 | 79 | 118 | 5.2 | 8.7 | 0.00 | 0.00 | 0.00 | 46 | 987.8 |
| 20260510202745 | 79 | 129 | 4.3 | 8.7 | 0.00 | 0.00 | 0.00 | 45 | 988.1 |
| 20260510202136 | 80 | 52 | 4.3 | 7.0 | 0.00 | 0.00 | 0.00 | 44 | 988.1 |
| 20260510200912 | 80 | 343 | 2.6 | 4.3 | 0.00 | 0.00 | 0.00 | 45 | 988.1 |
| 20260510200339 | 79 | 84 | 1.7 | 5.2 | 0.00 | 0.00 | 0.00 | 46 | 988.1 |
| 20260510195720 | 79 | 117 | 4.3 | 5.2 | 0.00 | 0.00 | 0.00 | 46 | 988.1 |
| 20260510195153 | 79 | 339 | 0.9 | 2.6 | 0.00 | 0.00 | 0.00 | 46 | 988.1 |
| 20260510194535 | 80 | 301 | 0.0 | 7.0 | 0.00 | 0.00 | 0.00 | 45 | 988.1 |
| 20260510193952 | 78 | 89 | 1.7 | 4.3 | 0.00 | 0.00 | 0.00 | 47 | 988.1 |
| 20260510193321 | 77 | 65 | 1.7 | 3.5 | 0.00 | 0.00 | 0.00 | 53 | 988.4 |
| 20260510192731 | 76 | 114 | 0.0 | 2.6 | 0.00 | 0.00 | 0.00 | 53 | 988.4 |
| 20260510192132 | 76 | 122 | 0.0 | 0.9 | 0.00 | 0.00 | 0.00 | 54 | 988.4 |
| 20260510191534 | 76 | 98 | 1.7 | 2.6 | 0.00 | 0.00 | 0.00 | 50 | 988.4 |
| 20260510190926 | 77 | 219 | 0.0 | 1.7 | 0.00 | 0.00 | 0.00 | 52 | 988.4 |
| 20260510190319 | 77 | 86 | 0.9 | 3.5 | 0.00 | 0.00 | 0.00 | 48 | 988.4 |
| 20260510185121 | 78 | 77 | 4.3 | 5.2 | 0.00 | 0.00 | 0.00 | 45 | 988.1 |
| 20260510184544 | 79 | 35 | 5.2 | 7.8 | 0.00 | 0.00 | 0.00 | 45 | 988.1 |
| 20260510183943 | 80 | 32 | 0.0 | 4.3 | 0.00 | 0.00 | 0.00 | 43 | 988.1 |
| 20260510183349 | 80 | 118 | 4.3 | 4.3 | 0.00 | 0.00 | 0.00 | 45 | 987.8 |
| 20260510182738 | 82 | 128 | 1.7 | 7.8 | 0.00 | 0.00 | 0.00 | 42 | 987.8 |
| 20260510182115 | 80 | 176 | 6.1 | 7.8 | 0.00 | 0.00 | 0.00 | 44 | 987.8 |
| 20260510181544 | 80 | 155 | 2.6 | 7.8 | 0.00 | 0.00 | 0.00 | 44 | 987.8 |
| 20260510180934 | 79 | 131 | 5.2 | 10.4 | 0.00 | 0.00 | 0.00 | 42 | 987.8 |
| 20260510180317 | 80 | 131 | 11.3 | 12.2 | 0.00 | 0.00 | 0.00 | 45 | 988.1 |
| 20260510175741 | 80 | 121 | 7.0 | 11.3 | 0.00 | 0.00 | 0.00 | 44 | 987.8 |
| 20260510175152 | 80 | 77 | 5.2 | 7.0 | 0.00 | 0.00 | 0.00 | 44 | 987.8 |
| 20260510173950 | 81 | 95 | 5.2 | 7.0 | 0.00 | 0.00 | 0.00 | 42 | 988.1 |
| 20260510173326 | 83 | 84 | 0.0 | 4.3 | 0.00 | 0.00 | 0.00 | 43 | 988.1 |
| 20260510172724 | 83 | 145 | 0.0 | 2.6 | 0.00 | 0.00 | 0.00 | 43 | 987.8 |
| 20260510172111 | 83 | 327 | 0.9 | 3.5 | 0.00 | 0.00 | 0.00 | 44 | 987.8 |
| 20260510170336 | 83 | 137 | 0.9 | 3.5 | 0.00 | 0.00 | 0.00 | 47 | 988.1 |
| 20260510165751 | 81 | 203 | 1.7 | 5.2 | 0.00 | 0.00 | 0.00 | 45 | 988.1 |
| 20260510164545 | 82 | 148 | 2.6 | 2.6 | 0.00 | 0.00 | 0.00 | 45 | 988.1 |
| 20260510163944 | 81 | 224 | 0.0 | 2.6 | 0.00 | 0.00 | 0.00 | 46 | 988.1 |
| 20260510162724 | 79 | 308 | 0.9 | 2.6 | 0.00 | 0.00 | 0.00 | 53 | 988.4 |
| 20260510161529 | 78 | 309 | 2.6 | 6.1 | 0.00 | 0.00 | 0.00 | 53 | 988.8 |
| 20260510160950 | 79 | 70 | 2.6 | 2.6 | 0.00 | 0.00 | 0.00 | 54 | 988.8 |
| 20260510155736 | 78 | 290 | 0.9 | 3.5 | 0.00 | 0.00 | 0.00 | 56 | 989.1 |
| 20260510155150 | 77 | 313 | 0.9 | 1.7 | 0.00 | 0.00 | 0.00 | 58 | 989.1 |
| 20260510154523 | 76 | 312 | 0.0 | 0.9 | 0.00 | 0.00 | 0.00 | 60 | 989.1 |
| 20260510153949 | 75 | 335 | 0.0 | 0.9 | 0.00 | 0.00 | 0.00 | 62 | 989.1 |
| 20260510153322 | 74 | 117 | 0.0 | 0.0 | 0.00 | 0.00 | 0.00 | 63 | 989.1 |
| 20260510152733 | 73 | 340 | 0.0 | 0.9 | 0.00 | 0.00 | 0.00 | 65 | 989.5 |
| 20260510152149 | 72 | 124 | 0.0 | 2.6 | 0.00 | 0.00 | 0.00 | 65 | 989.5 |
| 20260510151535 | 73 | 338 | 0.9 | 1.7 | 0.00 | 0.00 | 0.00 | 64 | 989.5 |
| 20260510150914 | 73 | 330 | 0.0 | 0.0 | 0.00 | 0.00 | 0.00 | 65 | 989.5 |
| 20260510150339 | 72 | 330 | 0.0 | 0.9 | 0.00 | 0.00 | 0.00 | 68 | 989.5 |
| 20260510145717 | 71 | 300 | 0.0 | 0.9 | 0.00 | 0.00 | 0.00 | 66 | 989.5 |
| 20260510145138 | 70 | 300 | 0.0 | 0.0 | 0.00 | 0.00 | 0.00 | 70 | 989.5 |
| 20260510144510 | 69 | 300 | 0.0 | 0.9 | 0.00 | 0.00 | 0.00 | 68 | 989.8 |
| 20260510143926 | 68 | 300 | 0.0 | 0.9 | 0.00 | 0.00 | 0.00 | 74 | 989.5 |
| 20260510143335 | 69 | 301 | 0.0 | 0.0 | 0.00 | 0.00 | 0.00 | 71 | 989.8 |
| 20260510142713 | 68 | 301 | 0.0 | 2.6 | 0.00 | 0.00 | 0.00 | 72 | 989.5 |
| 20260510142128 | 68 | 316 | 0.0 | 0.9 | 0.00 | 0.00 | 0.00 | 72 | 989.5 |
| 20260510140929 | 65 | 316 | 0.0 | 0.0 | 0.00 | 0.00 | 0.00 | 82 | 989.8 |
| 20260510135715 | 64 | 316 | 0.0 | 0.0 | 0.00 | 0.00 | 0.00 | 84 | 989.8 |
| 20260510135116 | 63 | 316 | 0.0 | 0.0 | 0.00 | 0.00 | 0.00 | 82 | 989.8 |
| 20260510134511 | 62 | 316 | 0.0 | 0.0 | 0.00 | 0.00 | 0.00 | 83 | 989.8 |
| 20260510133348 | 59 | 316 | 0.0 | 0.0 | 0.00 | 0.00 | 0.00 | 87 | 989.8 |
| 20260510132749 | 58 | 316 | 0.0 | 0.0 | 0.00 | 0.00 | 0.00 | 89 | 989.8 |
| 20260510131517 | 56 | 316 | 0.0 | 0.0 | 0.00 | 0.00 | 0.00 | 91 | 990.1 |
| 20260510130920 | 55 | 316 | 0.0 | 0.0 | 0.00 | 0.00 | 0.00 | 92 | 990.1 |
| 20260510130331 | 54 | 316 | 0.0 | 0.0 | 0.00 | 0.00 | 0.00 | 92 | 990.1 |
| 20260510125751 | 53 | 316 | 0.0 | 0.0 | 0.00 | 0.00 | 0.00 | 93 | 990.1 |
| 20260510125144 | 53 | 316 | 0.0 | 0.0 | 0.00 | 0.00 | 0.00 | 94 | 990.1 |
| 20260510123308 | 51 | 316 | 0.0 | 0.0 | 0.00 | 0.00 | 0.00 | 95 | 990.5 |
| 20260510122729 | 50 | 310 | 1.7 | 1.7 | 0.00 | 0.00 | 0.00 | 95 | 990.1 |
| 20260510122133 | 50 | 308 | 1.7 | 1.7 | 0.00 | 0.00 | 0.00 | 95 | 990.1 |
| 20260510121511 | 50 | 312 | 1.7 | 2.6 | 0.00 | 0.00 | 0.00 | 95 | 990.1 |
| 20260510120949 | 50 | 346 | 1.7 | 3.5 | 0.00 | 0.00 | 0.00 | 95 | 990.1 |
| 20260510115743 | 50 | 332 | 1.7 | 3.5 | 0.00 | 0.00 | 0.00 | 95 | 990.1 |
| 20260510114518 | 50 | 314 | 2.6 | 3.5 | 0.00 | 0.00 | 0.00 | 95 | 989.8 |
| 20260510113914 | 50 | 323 | 1.7 | 2.6 | 0.00 | 0.00 | 0.00 | 96 | 989.8 |
| 20260510112710 | 49 | 312 | 1.7 | 3.5 | 0.00 | 0.00 | 0.00 | 96 | 989.8 |
| 20260510112131 | 49 | 347 | 0.9 | 2.6 | 0.00 | 0.00 | 0.00 | 96 | 989.5 |
| 20260510111532 | 49 | 318 | 0.0 | 3.5 | 0.00 | 0.00 | 0.00 | 96 | 989.5 |
| 20260510110933 | 49 | 315 | 0.0 | 3.5 | 0.00 | 0.00 | 0.00 | 96 | 989.5 |
| 20260510110312 | 49 | 342 | 2.6 | 3.5 | 0.00 | 0.00 | 0.00 | 96 | 989.5 |
| 20260510105747 | 49 | 316 | 2.6 | 3.5 | 0.00 | 0.00 | 0.00 | 96 | 989.1 |
| 20260510105143 | 49 | 316 | 2.6 | 3.5 | 0.00 | 0.00 | 0.00 | 96 | 989.1 |
| 20260510103934 | 49 | 316 | 0.0 | 3.5 | 0.00 | 0.00 | 0.00 | 96 | 989.1 |
| 20260510103324 | 49 | 328 | 1.7 | 1.7 | 0.00 | 0.00 | 0.00 | 96 | 989.1 |
| 20260510102717 | 49 | 331 | 1.7 | 3.5 | 0.00 | 0.00 | 0.00 | 96 | 989.1 |
| 20260510102142 | 49 | 342 | 1.7 | 1.7 | 0.00 | 0.00 | 0.00 | 96 | 988.8 |
| 20260510101510 | 49 | 323 | 0.9 | 2.6 | 0.00 | 0.00 | 0.00 | 96 | 988.8 |
| 20260510100351 | 49 | 324 | 0.9 | 2.6 | 0.00 | 0.00 | 0.00 | 96 | 988.4 |
| 20260510095710 | 49 | 347 | 0.9 | 1.7 | 0.00 | 0.00 | 0.00 | 96 | 988.4 |
| 20260510095139 | 49 | 319 | 0.9 | 0.9 | 0.00 | 0.00 | 0.00 | 96 | 988.4 |
| 20260510094539 | 49 | 319 | 0.0 | 0.0 | 0.00 | 0.00 | 0.00 | 96 | 988.1 |
| 20260510093908 | 49 | 318 | 0.0 | 1.7 | 0.00 | 0.00 | 0.00 | 96 | 988.4 |
| 20260510093327 | 49 | 325 | 0.0 | 1.7 | 0.00 | 0.00 | 0.00 | 96 | 988.1 |
| 20260510092725 | 48 | 325 | 0.9 | 1.7 | 0.00 | 0.00 | 0.00 | 96 | 988.1 |
| 20260510092129 | 48 | 319 | 0.0 | 0.9 | 0.00 | 0.00 | 0.00 | 96 | 988.1 |
| 20260510091537 | 48 | 319 | 0.0 | 0.0 | 0.00 | 0.00 | 0.00 | 96 | 988.1 |
| 20260510090909 | 48 | 319 | 0.0 | 0.0 | 0.00 | 0.00 | 0.00 | 96 | 988.1 |
| 20260510090341 | 48 | 319 | 0.0 | 0.0 | 0.00 | 0.00 | 0.00 | 96 | 987.8 |
| 20260510085716 | 48 | 319 | 0.0 | 0.0 | 0.00 | 0.00 | 0.00 | 96 | 987.8 |
| 20260510083948 | 48 | 319 | 0.0 | 0.0 | 0.00 | 0.00 | 0.00 | 96 | 987.8 |
| 20260510083352 | 48 | 319 | 0.9 | 1.7 | 0.00 | 0.00 | 0.00 | 96 | 987.8 |
| 20260510082744 | 48 | 300 | 0.0 | 0.0 | 0.00 | 0.00 | 0.00 | 96 | 987.4 |
| 20260510082119 | 48 | 300 | 0.0 | 0.0 | 0.00 | 0.00 | 0.00 | 96 | 987.8 |
| 20260510081549 | 48 | 300 | 0.0 | 0.0 | 0.00 | 0.00 | 0.00 | 96 | 987.4 |
| 20260510080918 | 48 | 300 | 0.0 | 0.0 | 0.00 | 0.00 | 0.00 | 96 | 987.8 |
| 20260510080327 | 48 | 300 | 0.0 | 0.0 | 0.00 | 0.00 | 0.00 | 96 | 987.4 |
| 20260510075750 | 48 | 300 | 0.0 | 0.0 | 0.00 | 0.00 | 0.00 | 95 | 987.4 |
| 20260510074542 | 49 | 300 | 0.0 | 0.0 | 0.00 | 0.00 | 0.00 | 96 | 987.4 |
| 20260510073942 | 49 | 300 | 0.0 | 0.0 | 0.00 | 0.00 | 0.00 | 96 | 987.4 |
| 20260510073347 | 49 | 300 | 0.0 | 0.0 | 0.00 | 0.00 | 0.00 | 96 | 987.4 |
| 20260510072734 | 49 | 300 | 0.0 | 0.0 | 0.00 | 0.00 | 0.00 | 96 | 987.4 |
| 20260510072126 | 49 | 202 | 0.0 | 0.0 | 0.00 | 0.00 | 0.00 | 96 | 987.4 |
| 20260510071546 | 49 | 202 | 0.0 | 0.0 | 0.00 | 0.00 | 0.00 | 96 | 987.4 |
| 20260510070925 | 49 | 202 | 0.0 | 0.0 | 0.00 | 0.00 | 0.00 | 96 | 987.4 |
| 20260510070312 | 49 | 202 | 0.0 | 0.0 | 0.00 | 0.00 | 0.00 | 96 | 987.1 |
| 20260510065734 | 49 | 202 | 0.0 | 0.0 | 0.00 | 0.00 | 0.00 | 96 | 987.1 |
| 20260510065141 | 49 | 202 | 0.0 | 0.0 | 0.00 | 0.00 | 0.00 | 96 | 987.1 |
| 20260510063923 | 48 | 202 | 0.0 | 0.0 | 0.00 | 0.00 | 0.00 | 96 | 987.1 |
| 20260510063330 | 49 | 202 | 0.0 | 0.0 | 0.00 | 0.00 | 0.00 | 96 | 987.1 |
| 20260510062709 | 49 | 202 | 0.0 | 0.0 | 0.00 | 0.00 | 0.00 | 96 | 987.1 |
| 20260510062146 | 49 | 202 | 0.0 | 0.0 | 0.00 | 0.00 | 0.00 | 96 | 987.1 |
| 20260510061534 | 49 | 202 | 0.0 | 0.0 | 0.00 | 0.00 | 0.00 | 96 | 987.1 |
| 20260510060949 | 49 | 202 | 0.0 | 0.0 | 0.00 | 0.00 | 0.00 | 96 | 987.1 |
| 20260510060341 | 49 | 202 | 0.0 | 0.0 | 0.00 | 0.00 | 0.00 | 96 | 987.1 |
| 20260510055725 | 49 | 202 | 0.0 | 0.0 | 0.00 | 0.00 | 0.00 | 96 | 987.1 |
| 20260510055118 | 49 | 202 | 0.0 | 0.0 | 0.00 | 0.00 | 0.00 | 96 | 987.4 |
| 20260510054538 | 49 | 202 | 0.0 | 0.0 | 0.00 | 0.00 | 0.00 | 95 | 987.4 |
| 20260510053314 | 49 | 202 | 0.0 | 0.0 | 0.00 | 0.00 | 0.00 | 95 | 987.4 |
| 20260510052149 | 49 | 202 | 0.0 | 0.0 | 0.00 | 0.00 | 0.00 | 95 | 987.4 |
| 20260510051548 | 49 | 202 | 0.0 | 0.0 | 0.00 | 0.00 | 0.00 | 95 | 987.4 |
| 20260510050912 | 49 | 202 | 0.0 | 0.0 | 0.00 | 0.00 | 0.00 | 95 | 987.1 |
| 20260510050332 | 50 | 202 | 0.9 | 0.9 | 0.00 | 0.00 | 0.00 | 95 | 987.1 |
| 20260510045721 | 50 | 202 | 0.0 | 0.0 | 0.00 | 0.00 | 0.00 | 95 | 987.4 |
| 20260510045110 | 50 | 202 | 0.0 | 0.0 | 0.00 | 0.00 | 0.00 | 95 | 987.1 |
| 20260510043931 | 50 | 202 | 0.0 | 0.0 | 0.00 | 0.00 | 0.00 | 95 | 987.1 |
| 20260510043338 | 50 | 202 | 0.0 | 0.0 | 0.00 | 0.00 | 0.00 | 95 | 987.1 |
| 20260510042711 | 50 | 202 | 0.0 | 0.0 | 0.00 | 0.00 | 0.00 | 95 | 987.1 |
| 20260510042145 | 50 | 202 | 0.0 | 0.0 | 0.00 | 0.00 | 0.00 | 95 | 987.1 |
| 20260510041533 | 51 | 202 | 0.0 | 0.0 | 0.00 | 0.00 | 0.00 | 95 | 987.1 |
| 20260510040924 | 51 | 202 | 0.0 | 0.0 | 0.00 | 0.00 | 0.00 | 95 | 987.1 |
| 20260510040343 | 51 | 202 | 0.0 | 0.0 | 0.00 | 0.00 | 0.00 | 95 | 987.1 |
| 20260510035747 | 51 | 202 | 0.0 | 0.0 | 0.00 | 0.00 | 0.00 | 95 | 987.1 |
| 20260510035123 | 51 | 202 | 0.0 | 0.0 | 0.00 | 0.00 | 0.00 | 95 | 987.1 |
| 20260510034541 | 51 | 202 | 0.0 | 0.0 | 0.00 | 0.00 | 0.00 | 95 | 987.1 |
| 20260510033909 | 51 | 202 | 0.0 | 0.0 | 0.00 | 0.00 | 0.00 | 95 | 987.1 |
| 20260510033316 | 51 | 202 | 0.0 | 0.0 | 0.00 | 0.00 | 0.00 | 95 | 986.7 |
| 20260510032752 | 52 | 202 | 0.0 | 0.0 | 0.00 | 0.00 | 0.00 | 95 | 987.1 |
| 20260510032147 | 52 | 203 | 0.0 | 0.0 | 0.00 | 0.00 | 0.00 | 95 | 986.7 |
| 20260510031524 | 52 | 202 | 0.0 | 0.0 | 0.00 | 0.00 | 0.00 | 95 | 986.7 |
| 20260510030919 | 52 | 202 | 0.0 | 0.0 | 0.00 | 0.00 | 0.00 | 95 | 986.4 |
| 20260510030328 | 52 | 202 | 0.0 | 0.0 | 0.00 | 0.00 | 0.00 | 94 | 986.4 |
| 20260510025732 | 52 | 203 | 0.0 | 0.0 | 0.00 | 0.00 | 0.00 | 94 | 986.4 |
| 20260510025123 | 53 | 203 | 1.7 | 1.7 | 0.00 | 0.00 | 0.00 | 94 | 986.4 |
| 20260510023940 | 53 | 202 | 0.0 | 0.0 | 0.00 | 0.00 | 0.00 | 94 | 986.4 |
| 20260510022739 | 53 | 202 | 0.0 | 0.0 | 0.00 | 0.00 | 0.00 | 94 | 986.4 |
| 20260510021510 | 54 | 202 | 0.0 | 0.0 | 0.00 | 0.00 | 0.00 | 93 | 986.4 |
| 20260510020952 | 54 | 202 | 0.0 | 0.0 | 0.00 | 0.00 | 0.00 | 93 | 986.1 |
| 20260510015740 | 55 | 202 | 0.0 | 0.0 | 0.00 | 0.00 | 0.00 | 93 | 986.1 |
| 20260510015143 | 55 | 202 | 0.0 | 0.0 | 0.00 | 0.00 | 0.00 | 93 | 985.7 |
| 20260510014511 | 55 | 202 | 0.0 | 0.0 | 0.00 | 0.00 | 0.00 | 92 | 985.7 |
| 20260510013946 | 55 | 202 | 0.0 | 0.0 | 0.00 | 0.00 | 0.00 | 92 | 985.4 |
| 20260510012725 | 56 | 202 | 0.0 | 0.0 | 0.00 | 0.00 | 0.00 | 92 | 985.1 |
| 20260510012131 | 56 | 202 | 0.0 | 0.0 | 0.00 | 0.00 | 0.00 | 91 | 985.1 |
| 20260510011556 | 56 | 202 | 0.0 | 0.0 | 0.00 | 0.00 | 0.00 | 91 | 985.1 |
| 20260510010951 | 57 | 202 | 0.0 | 0.0 | 0.00 | 0.00 | 0.00 | 90 | 985.1 |
| 20260510010348 | 57 | 202 | 0.0 | 0.0 | 0.00 | 0.00 | 0.00 | 90 | 984.7 |
| 20260510005143 | 58 | 202 | 0.9 | 0.9 | 0.00 | 0.00 | 0.00 | 89 | 984.7 |
| 20260510004550 | 59 | 202 | 0.0 | 0.0 | 0.00 | 0.00 | 0.00 | 88 | 984.7 |
| 20260510003307 | 60 | 196 | 0.0 | 0.0 | 0.00 | 0.00 | 0.00 | 86 | 984.7 |
| 20260510002716 | 60 | 196 | 0.0 | 0.0 | 0.00 | 0.00 | 0.00 | 86 | 984.7 |
| 20260510001511 | 62 | 196 | 0.0 | 0.9 | 0.00 | 0.00 | 0.00 | 83 | 984.4 |
| 20260510000943 | 62 | 196 | 0.0 | 0.0 | 0.00 | 0.00 | 0.00 | 81 | 984.0 |
| 20260510000349 | 62 | 196 | 0.0 | 0.0 | 0.00 | 0.00 | 0.00 | 81 | 984.0 |
| 20260509235710 | 63 | 196 | 0.0 | 0.0 | 0.00 | 0.00 | 0.00 | 79 | 984.0 |
| 20260509235126 | 64 | 196 | 0.9 | 1.7 | 0.00 | 0.00 | 0.00 | 77 | 984.0 |
| 20260509234543 | 64 | 196 | 0.9 | 0.9 | 0.00 | 0.00 | 0.00 | 76 | 984.0 |
| 20260509233949 | 65 | 196 | 0.0 | 0.0 | 0.00 | 0.00 | 0.00 | 74 | 984.0 |
| 20260509233339 | 66 | 188 | 0.9 | 0.9 | 0.00 | 0.00 | 0.00 | 73 | 983.7 |
| 20260509232130 | 67 | 222 | 0.0 | 0.9 | 0.00 | 0.00 | 0.00 | 70 | 983.7 |
| 20260509231509 | 67 | 222 | 0.0 | 0.9 | 0.00 | 0.00 | 0.00 | 72 | 983.7 |
| 20260509230951 | 68 | 222 | 0.0 | 2.6 | 0.00 | 0.00 | 0.00 | 69 | 983.7 |
| 20260509230332 | 68 | 186 | 0.9 | 1.7 | 0.00 | 0.00 | 0.00 | 67 | 983.7 |
| 20260509225146 | 70 | 134 | 0.0 | 2.6 | 0.00 | 0.00 | 0.00 | 64 | 983.7 |
| 20260509224535 | 71 | 120 | 0.0 | 8.7 | 0.00 | 0.00 | 0.00 | 60 | 983.7 |
| 20260509223928 | 71 | 227 | 1.7 | 3.5 | 0.00 | 0.00 | 0.00 | 63 | 983.7 |
| 20260509223343 | 72 | 124 | 0.0 | 5.2 | 0.00 | 0.00 | 0.00 | 59 | 983.7 |
| 20260509222130 | 72 | 333 | 0.0 | 0.9 | 0.00 | 0.00 | 0.00 | 61 | 983.7 |
| 20260509220918 | 72 | 117 | 2.6 | 3.5 | 0.00 | 0.00 | 0.00 | 58 | 984.0 |
| 20260509220326 | 72 | 70 | 0.0 | 4.3 | 0.00 | 0.00 | 0.00 | 57 | 984.0 |
| 20260509215723 | 74 | 323 | 2.6 | 3.5 | 0.00 | 0.00 | 0.00 | 55 | 984.0 |
| 20260509215134 | 72 | 267 | 0.0 | 1.7 | 0.00 | 0.00 | 0.00 | 57 | 984.0 |
| 20260509214520 | 72 | 48 | 0.9 | 0.9 | 0.00 | 0.00 | 0.00 | 59 | 984.0 |
| 20260509213335 | 71 | 127 | 4.3 | 6.1 | 0.00 | 0.00 | 0.00 | 57 | 984.0 |
| 20260509212739 | 71 | 129 | 0.0 | 1.7 | 0.00 | 0.00 | 0.00 | 58 | 984.0 |
| 20260509212145 | 71 | 128 | 3.5 | 7.8 | 0.00 | 0.00 | 0.00 | 56 | 984.0 |
| 20260509211542 | 71 | 311 | 1.7 | 4.3 | 0.00 | 0.00 | 0.00 | 57 | 984.0 |
| 20260509210931 | 71 | 92 | 3.5 | 4.3 | 0.00 | 0.00 | 0.00 | 56 | 984.0 |
| 20260509210318 | 71 | 314 | 0.0 | 1.7 | 0.00 | 0.00 | 0.00 | 56 | 984.0 |
| 20260509205747 | 72 | 229 | 0.0 | 0.9 | 0.00 | 0.00 | 0.00 | 58 | 984.0 |
| 20260509205134 | 72 | 102 | 0.0 | 2.6 | 0.00 | 0.00 | 0.00 | 56 | 984.0 |
| 20260509204537 | 72 | 98 | 0.9 | 0.9 | 0.00 | 0.00 | 0.00 | 57 | 984.0 |